Time;durP1;ratioP1;P1;durP2;ratioP2;P2;SDS_P1;SDS_P2;PMS_P1;PMS_P2;Temp;Humidity;BMP_temperature;BMP_pressure;BME280_temperature;BME280_humidity;BME280_pressure;Samples;Min_cycle;Max_cycle;Signal;HPM_P1;HPM_P2
2021/11/12 00:13:41;;;;;;;28.93;18.73;;;;;;;;;;4999196;28;20487;-53
2021/11/12 00:16:07;;;;;;;29.30;17.97;;;;;;;;;;4996337;28;20902;-53
2021/11/12 00:18:34;;;;;;;27.13;17.20;;;;;;;;;;4991900;28;20403;-53
2021/11/12 00:21:01;;;;;;;27.00;17.80;;;;;;;;;;4992176;28;20884;-53
2021/11/12 00:23:28;;;;;;;23.70;17.03;;;;;;;;;;4992112;28;20467;-53
2021/11/12 00:25:54;;;;;;;26.27;15.93;;;;;;;;;;4992111;28;20408;-53
2021/11/12 00:28:23;;;;;;;28.10;16.10;;;;;;;;;;4991831;28;20426;-53
2021/11/12 00:38:35;;;;;;;21.13;12.40;;;;;;;;;;4995510;28;20396;-53
2021/11/12 00:41:17;;;;;;;19.63;12.60;;;;;;;;;;4995878;28;20950;-53
2021/11/12 00:43:46;;;;;;;18.17;11.10;;;;;;;;;;4995669;28;20432;-53
2021/11/12 00:46:19;;;;;;;17.30;12.60;;;;;;;;;;4995613;28;20412;-53
2021/11/12 00:48:52;;;;;;;21.00;14.87;;;;;;;;;;4995354;28;20404;-53
2021/11/12 00:51:24;;;;;;;23.03;13.40;;;;;;;;;;4995744;28;20410;-53
2021/11/12 00:53:56;;;;;;;19.67;13.20;;;;;;;;;;4995463;28;20970;-53
2021/11/12 00:56:24;;;;;;;20.90;14.50;;;;;;;;;;4995488;28;20742;-53
2021/11/12 00:58:51;;;;;;;21.80;15.27;;;;;;;;;;4995309;28;20392;-53
2021/11/12 01:01:18;;;;;;;17.87;13.10;;;;;;;;;;4995756;28;20759;-53
2021/11/12 01:03:44;;;;;;;24.13;14.07;;;;;;;;;;4995340;28;20459;-53
2021/11/12 01:06:10;;;;;;;19.23;13.03;;;;;;;;;;4995405;28;20400;-53
2021/11/12 01:08:36;;;;;;;18.03;11.27;;;;;;;;;;4995690;28;20407;-52
2021/11/12 01:11:04;;;;;;;18.57;12.80;;;;;;;;;;4995241;28;20411;-50
2021/11/12 01:13:30;;;;;;;13.87;8.90;;;;;;;;;;4995043;28;20560;-51
2021/11/12 01:15:57;;;;;;;12.07;8.30;;;;;;;;;;4995200;28;20407;-52
2021/11/12 01:18:23;;;;;;;8.23;7.17;;;;;;;;;;4994826;28;20401;-50
2021/11/12 01:20:49;;;;;;;10.73;7.50;;;;;;;;;;4995103;28;20429;-50
2021/11/12 01:23:16;;;;;;;11.43;8.33;;;;;;;;;;4994833;28;20486;-50
2021/11/12 01:25:42;;;;;;;14.20;7.77;;;;;;;;;;4995018;28;20907;-50
2021/11/12 01:28:08;;;;;;;9.37;7.40;;;;;;;;;;4994710;28;20542;-51
2021/11/12 01:30:35;;;;;;;9.90;7.20;;;;;;;;;;4994875;28;20454;-50
2021/11/12 01:33:01;;;;;;;9.63;7.40;;;;;;;;;;4994779;28;20463;-51
2021/11/12 01:35:27;;;;;;;9.30;6.63;;;;;;;;;;4994828;28;20813;-51
2021/11/12 01:37:54;;;;;;;13.73;7.20;;;;;;;;;;4994358;28;20478;-51
2021/11/12 01:40:25;;;;;;;11.33;7.53;;;;;;;;;;4994801;28;20403;-50
2021/11/12 01:42:54;;;;;;;8.60;7.10;;;;;;;;;;4994692;28;20419;-50
2021/11/12 01:45:29;;;;;;;13.60;8.00;;;;;;;;;;4993534;28;20399;-50
2021/11/12 01:48:48;;;;;;;9.37;8.00;;;;;;;;;;4994411;28;20394;-51
2021/11/12 01:50:44;;;;;;;11.00;7.63;;;;;;;;;;4987090;28;20412;-50
2021/11/12 01:53:13;;;;;;;9.03;7.93;;;;;;;;;;4994353;28;20494;-51
2021/11/12 01:55:48;;;;;;;16.47;8.50;;;;;;;;;;4994856;28;20725;-50
2021/11/12 02:00:49;;;;;;;9.80;7.00;;;;;;;;;;4994069;28;20423;-50
2021/11/12 02:03:15;;;;;;;8.90;6.40;;;;;;;;;;4992557;28;20460;-51
2021/11/12 02:05:42;;;;;;;7.03;5.90;;;;;;;;;;4993631;28;20446;-51
2021/11/12 02:08:10;;;;;;;6.00;4.77;;;;;;;;;;4993982;28;20910;-52
2021/11/12 02:10:37;;;;;;;5.93;5.23;;;;;;;;;;4994105;28;20403;-51
2021/11/12 02:13:12;;;;;;;11.30;5.37;;;;;;;;;;4993811;28;20954;-51
2021/11/12 02:15:39;;;;;;;6.20;5.20;;;;;;;;;;4994044;28;20406;-50
2021/11/12 02:18:12;;;;;;;5.50;4.90;;;;;;;;;;4993814;28;20425;-50
2021/11/12 02:20:48;;;;;;;7.20;5.20;;;;;;;;;;4993998;28;20536;-50
2021/11/12 02:23:16;;;;;;;7.20;5.30;;;;;;;;;;4993884;28;20421;-51
2021/11/12 02:25:44;;;;;;;6.20;5.00;;;;;;;;;;4993822;28;20434;-50
2021/11/12 02:28:13;;;;;;;7.77;5.63;;;;;;;;;;4993537;28;20408;-50
2021/11/12 02:30:41;;;;;;;9.00;5.60;;;;;;;;;;4993760;28;20497;-52
2021/11/12 02:33:10;;;;;;;8.07;6.03;;;;;;;;;;4993619;28;20452;-50
2021/11/12 02:35:38;;;;;;;5.40;4.90;;;;;;;;;;4993784;28;20556;-51
2021/11/12 02:38:04;;;;;;;5.30;4.80;;;;;;;;;;4993339;28;20875;-51
2021/11/12 02:40:51;;;;;;;6.07;5.00;;;;;;;;;;4993490;28;20920;-51
2021/11/12 02:43:17;;;;;;;7.13;5.47;;;;;;;;;;4993276;28;20433;-50
2021/11/12 02:45:44;;;;;;;7.33;4.97;;;;;;;;;;4993560;28;20419;-50
2021/11/12 02:48:11;;;;;;;8.40;5.97;;;;;;;;;;4993231;28;20406;-50
2021/11/12 02:50:38;;;;;;;6.50;5.50;;;;;;;;;;4993390;28;20420;-51
2021/11/12 02:53:09;;;;;;;9.00;5.57;;;;;;;;;;4993114;28;20464;-50
2021/11/12 02:55:35;;;;;;;7.43;5.30;;;;;;;;;;4993112;28;20393;-51
2021/11/12 02:58:01;;;;;;;5.70;5.10;;;;;;;;;;4991756;28;20427;-52
2021/11/12 03:00:27;;;;;;;6.57;5.90;;;;;;;;;;4993326;28;20600;-50
2021/11/12 03:02:53;;;;;;;7.53;6.30;;;;;;;;;;4993172;28;20433;-50
2021/11/12 03:05:19;;;;;;;8.30;6.13;;;;;;;;;;4993177;28;20417;-50
2021/11/12 03:07:46;;;;;;;8.43;6.30;;;;;;;;;;4992757;28;20476;-50
2021/11/12 03:10:12;;;;;;;6.90;6.30;;;;;;;;;;4993176;28;20405;-51
2021/11/12 03:12:38;;;;;;;7.13;5.80;;;;;;;;;;4992781;28;20526;-51
2021/11/12 03:15:04;;;;;;;10.80;7.50;;;;;;;;;;4993022;28;20479;-50
2021/11/12 03:17:30;;;;;;;8.50;7.23;;;;;;;;;;4992664;28;20404;-50
2021/11/12 03:19:56;;;;;;;10.17;8.17;;;;;;;;;;4992842;28;20405;-50
2021/11/12 03:22:24;;;;;;;7.80;6.63;;;;;;;;;;4992766;28;20443;-50
2021/11/12 03:24:58;;;;;;;8.50;7.10;;;;;;;;;;4993120;28;20401;-50
2021/11/12 03:27:34;;;;;;;11.53;7.50;;;;;;;;;;4992719;28;20401;-50
2021/11/12 04:00:00;;;;;;;11.32;7.68;;;;;;;;;;4992643;28;20408;-50
2021/11/12 04:02:42;;;;;;;10.55;8.45;;;;;;;;;;4992362;28;20212;-51
2021/11/12 04:19:08;;;;;;;13.50;8.15;;;;;;;;;;4996002;28;20180;-50
2021/11/12 05:14:05;;;;;;;22.40;13.25;;;;;;;;;;4995127;28;20215;-50
2021/11/12 05:44:14;;;;;;;32.70;15.55;;;;;;;;;;4994891;28;20231;-50
2021/11/12 05:55:06;;;;;;;33.13;15.15;;;;;;;;;;4994436;28;20203;-51
2021/11/12 05:57:32;;;;;;;29.75;15.20;;;;;;;;;;4994266;28;20161;-50
2021/11/12 06:00:01;;;;;;;31.73;15.63;;;;;;;;;;4994400;28;20165;-50
2021/11/12 06:02:27;;;;;;;32.20;16.75;;;;;;;;;;4994145;28;20908;-50
2021/11/12 06:04:54;;;;;;;35.77;18.20;;;;;;;;;;4994281;28;20180;-50
2021/11/12 06:07:20;;;;;;;25.05;15.65;;;;;;;;;;4994123;28;20495;-50
2021/11/12 06:09:46;;;;;;;29.08;17.17;;;;;;;;;;4994025;28;20197;-50
2021/11/12 06:12:13;;;;;;;30.35;17.20;;;;;;;;;;4994378;28;20165;-51
2021/11/12 06:14:40;;;;;;;30.92;16.10;;;;;;;;;;4994161;28;20197;-50
2021/11/12 06:17:06;;;;;;;32.72;17.40;;;;;;;;;;4994482;28;20239;-52
2021/11/12 06:19:32;;;;;;;31.35;17.48;;;;;;;;;;4994066;28;20545;-52
2021/11/12 06:21:58;;;;;;;26.83;16.23;;;;;;;;;;4993976;28;20287;-52
2021/11/12 06:24:24;;;;;;;28.23;16.30;;;;;;;;;;4993879;28;20196;-52
2021/11/12 06:26:51;;;;;;;31.27;16.20;;;;;;;;;;4993857;28;20451;-52
2021/11/12 06:29:16;;;;;;;30.75;16.63;;;;;;;;;;4993822;28;20593;-52
2021/11/12 06:31:42;;;;;;;23.93;14.63;;;;;;;;;;4993042;28;20168;-52
2021/11/12 06:34:09;;;;;;;24.70;16.07;;;;;;;;;;4993634;28;20811;-52
2021/11/12 06:36:35;;;;;;;28.23;14.57;;;;;;;;;;4993708;28;20959;-52
2021/11/12 06:39:03;;;;;;;31.97;16.80;;;;;;;;;;4993477;28;20208;-52
2021/11/12 06:49:30;;;;;;;26.02;15.80;;;;;;;;;;4993317;28;20679;-52
2021/11/12 06:51:56;;;;;;;28.23;16.55;;;;;;;;;;4993553;28;20203;-52
2021/11/12 06:54:22;;;;;;;25.48;15.75;;;;;;;;;;4993235;28;20230;-52
2021/11/12 06:56:48;;;;;;;28.02;16.95;;;;;;;;;;4993208;28;20178;-52
2021/11/12 06:59:15;;;;;;;27.60;16.95;;;;;;;;;;4993080;28;20625;-52
2021/11/12 07:01:41;;;;;;;31.85;17.73;;;;;;;;;;4991967;28;20267;-52
2021/11/12 07:04:07;;;;;;;29.42;16.00;;;;;;;;;;4993097;28;20220;-52
2021/11/12 07:06:35;;;;;;;28.73;17.83;;;;;;;;;;4993178;28;20177;-52
2021/11/12 07:09:01;;;;;;;26.75;16.60;;;;;;;;;;4992855;28;20466;-52
2021/11/12 07:11:27;;;;;;;24.93;16.00;;;;;;;;;;4993101;28;20177;-52
2021/11/12 07:13:53;;;;;;;24.53;15.50;;;;;;;;;;4992831;28;20978;-52
2021/11/12 07:16:19;;;;;;;25.53;16.83;;;;;;;;;;4992955;28;20403;-52
2021/11/12 07:18:46;;;;;;;30.40;16.73;;;;;;;;;;4992665;28;20875;-53
2021/11/12 07:21:14;;;;;;;25.50;16.40;;;;;;;;;;4992870;28;20304;-53
2021/11/12 07:23:40;;;;;;;27.95;17.35;;;;;;;;;;4993244;28;20188;-53
2021/11/12 07:26:06;;;;;;;24.87;17.03;;;;;;;;;;4992731;28;20625;-52
2021/11/12 07:28:32;;;;;;;27.53;15.90;;;;;;;;;;4992437;28;20412;-52
2021/11/12 07:30:58;;;;;;;22.93;14.10;;;;;;;;;;4992555;28;20412;-52
2021/11/12 07:33:24;;;;;;;25.73;16.07;;;;;;;;;;4990669;28;20469;-52
2021/11/12 07:36:35;;;;;;;31.13;17.73;;;;;;;;;;4988215;28;20405;-52
2021/11/12 07:38:59;;;;;;;24.88;15.50;;;;;;;;;;4986991;28;20191;-53
2021/11/12 07:49:37;;;;;;;26.15;16.20;;;;;;;;;;4949162;29;20177;-52
2021/11/12 07:52:04;;;;;;;24.30;15.40;;;;;;;;;;4949317;28;20221;-52
2021/11/12 07:54:31;;;;;;;25.50;15.23;;;;;;;;;;4960909;28;20247;-53
2021/11/12 07:56:59;;;;;;;31.20;18.25;;;;;;;;;;4991716;28;20173;-53
2021/11/12 07:59:25;;;;;;;23.02;14.88;;;;;;;;;;4992167;28;20197;-52
2021/11/12 08:01:51;;;;;;;20.40;14.20;;;;;;;;;;4992421;28;20204;-52
2021/11/12 08:04:18;;;;;;;20.40;13.85;;;;;;;;;;4992357;28;20446;-52
2021/11/12 08:06:46;;;;;;;27.15;16.48;;;;;;;;;;4992382;28;20169;-53
2021/11/12 08:09:15;;;;;;;19.27;14.67;;;;;;;;;;4992130;28;20248;-53
2021/11/12 08:11:48;;;;;;;21.60;15.00;;;;;;;;;;4992313;28;20506;-52
2021/11/12 08:14:21;;;;;;;22.23;15.17;;;;;;;;;;4992099;28;20464;-53
2021/11/12 08:19:33;;;;;;;24.70;14.83;;;;;;;;;;4992236;28;20923;-53
2021/11/12 08:22:04;;;;;;;18.93;14.50;;;;;;;;;;4992248;28;20403;-53
2021/11/12 08:27:07;;;;;;;20.60;14.80;;;;;;;;;;4992328;28;20437;-53
2021/11/12 08:29:44;;;;;;;17.70;13.97;;;;;;;;;;4992005;28;20410;-53
2021/11/12 08:37:20;;;;;;;20.57;15.20;;;;;;;;;;4992058;28;20776;-53
2021/11/12 08:47:34;;;;;;;17.00;12.20;;;;;;;;;;4991758;28;20849;-53
2021/11/12 08:50:01;;;;;;;21.40;13.47;;;;;;;;;;4991699;28;20404;-53
2021/11/12 08:52:27;;;;;;;17.00;13.13;;;;;;;;;;4991942;28;20419;-53
2021/11/12 08:54:53;;;;;;;16.50;13.50;;;;;;;;;;4994667;28;20465;-53
2021/11/12 08:57:19;;;;;;;14.73;11.97;;;;;;;;;;4995535;28;20428;-53
2021/11/12 08:59:47;;;;;;;17.70;12.80;;;;;;;;;;4995342;28;20768;-53
2021/11/12 09:02:15;;;;;;;17.37;12.70;;;;;;;;;;4995407;28;20482;-53
2021/11/12 09:04:42;;;;;;;16.80;13.10;;;;;;;;;;4995501;28;20446;-53
2021/11/12 09:07:09;;;;;;;17.83;12.27;;;;;;;;;;4995667;28;20408;-53
2021/11/12 09:09:36;;;;;;;17.20;11.67;;;;;;;;;;4995263;28;20443;-53
2021/11/12 09:12:04;;;;;;;15.33;12.43;;;;;;;;;;4995176;28;20407;-53
2021/11/12 09:14:30;;;;;;;14.43;11.63;;;;;;;;;;4994992;28;20524;-53
2021/11/12 09:17:04;;;;;;;15.43;11.47;;;;;;;;;;4995044;28;20404;-53
2021/11/12 09:19:35;;;;;;;13.53;11.47;;;;;;;;;;4993267;28;20431;-51
2021/11/12 09:22:01;;;;;;;14.83;11.57;;;;;;;;;;4995765;28;20467;-51
2021/11/12 09:24:27;;;;;;;15.90;12.20;;;;;;;;;;4995091;28;20384;-51
2021/11/12 09:26:53;;;;;;;17.37;11.40;;;;;;;;;;4993940;28;20720;-51
2021/11/12 09:29:20;;;;;;;14.47;10.70;;;;;;;;;;4997104;28;20405;-54
2021/11/12 09:31:46;;;;;;;12.57;11.17;;;;;;;;;;4995932;28;20446;-51
2021/11/12 09:34:13;;;;;;;12.03;10.30;;;;;;;;;;4994665;28;20518;-51
2021/11/12 09:36:40;;;;;;;13.40;11.17;;;;;;;;;;4994691;28;20828;-51
2021/11/12 09:39:06;;;;;;;13.67;10.60;;;;;;;;;;4994244;28;20409;-51
2021/11/12 09:41:32;;;;;;;12.53;11.07;;;;;;;;;;4994698;28;20409;-51
2021/11/12 09:43:58;;;;;;;12.53;11.20;;;;;;;;;;4994427;28;20439;-51
2021/11/12 09:46:25;;;;;;;16.00;12.13;;;;;;;;;;4994507;28;20411;-51
2021/11/12 09:48:51;;;;;;;15.43;11.70;;;;;;;;;;4994318;28;20384;-51
2021/11/12 09:51:17;;;;;;;15.00;12.37;;;;;;;;;;4994307;28;20512;-51
2021/11/12 09:53:43;;;;;;;18.23;12.47;;;;;;;;;;4994850;28;20455;-51
2021/11/12 09:56:09;;;;;;;14.40;11.73;;;;;;;;;;4994369;28;20388;-51
2021/11/12 09:58:36;;;;;;;16.37;13.20;;;;;;;;;;4993908;28;20468;-51
2021/11/12 10:01:04;;;;;;;16.10;11.77;;;;;;;;;;4993737;28;20382;-52
2021/11/12 10:03:34;;;;;;;13.80;12.40;;;;;;;;;;4994389;28;20782;-52
2021/11/12 10:06:01;;;;;;;15.20;12.20;;;;;;;;;;4993367;28;20734;-52
2021/11/12 10:08:29;;;;;;;13.73;11.77;;;;;;;;;;4993879;28;20436;-51
2021/11/12 10:11:02;;;;;;;12.97;11.43;;;;;;;;;;4994450;28;20413;-54
2021/11/12 10:13:32;;;;;;;13.30;11.90;;;;;;;;;;4993882;28;20476;-54
2021/11/12 10:16:13;;;;;;;14.10;12.07;;;;;;;;;;4994251;28;20406;-54
2021/11/12 10:18:58;;;;;;;14.03;11.53;;;;;;;;;;4993676;28;20402;-54
2021/11/12 10:21:28;;;;;;;13.67;12.27;;;;;;;;;;4994024;28;20398;-54
2021/11/12 10:23:59;;;;;;;15.00;12.37;;;;;;;;;;4993929;28;20428;-54
2021/11/12 10:26:27;;;;;;;13.93;11.77;;;;;;;;;;4993850;28;20406;-54
2021/11/12 10:28:53;;;;;;;16.00;11.53;;;;;;;;;;4993609;28;20439;-54
2021/11/12 10:31:20;;;;;;;15.97;12.37;;;;;;;;;;4993681;28;20406;-54
2021/11/12 10:33:50;;;;;;;14.83;11.93;;;;;;;;;;4993639;28;20556;-54
2021/11/12 10:36:16;;;;;;;14.20;11.57;;;;;;;;;;4993601;28;20405;-54
2021/11/12 10:38:44;;;;;;;12.47;11.27;;;;;;;;;;4993382;28;20402;-54
2021/11/12 10:41:15;;;;;;;13.07;11.70;;;;;;;;;;4993600;28;20723;-54
2021/11/12 10:43:41;;;;;;;15.17;12.80;;;;;;;;;;4993338;28;20472;-54
2021/11/12 10:46:07;;;;;;;13.03;11.47;;;;;;;;;;4993468;28;20410;-54
2021/11/12 10:48:33;;;;;;;16.20;12.50;;;;;;;;;;4993424;28;20485;-54
2021/11/12 10:51:14;;;;;;;13.27;11.60;;;;;;;;;;4993432;28;20491;-53
2021/11/12 10:53:51;;;;;;;13.93;11.93;;;;;;;;;;4993223;28;20959;-54
2021/11/12 10:56:18;;;;;;;13.47;11.70;;;;;;;;;;4993130;28;20404;-54
2021/11/12 10:59:00;;;;;;;15.20;11.57;;;;;;;;;;4993056;28;20393;-54
2021/11/12 11:01:34;;;;;;;11.57;10.20;;;;;;;;;;4993240;28;20740;-53
2021/11/12 11:04:17;;;;;;;12.87;10.80;;;;;;;;;;4989856;28;20943;-53
2021/11/12 11:06:43;;;;;;;12.10;10.83;;;;;;;;;;4993005;28;20415;-54
2021/11/12 11:09:09;;;;;;;11.83;10.20;;;;;;;;;;4992907;28;20443;-55
2021/11/12 11:11:39;;;;;;;11.60;10.03;;;;;;;;;;4993006;28;20426;-54
2021/11/12 11:14:06;;;;;;;11.50;10.30;;;;;;;;;;4992698;28;20495;-54
2021/11/12 11:16:36;;;;;;;14.37;11.13;;;;;;;;;;4992711;28;20410;-54
2021/11/12 11:19:02;;;;;;;13.10;10.90;;;;;;;;;;4992714;28;20971;-54
2021/11/12 11:21:29;;;;;;;15.40;12.03;;;;;;;;;;4992831;28;20815;-54
2021/11/12 11:24:07;;;;;;;13.27;11.00;;;;;;;;;;4992713;28;20425;-54
2021/11/12 11:26:43;;;;;;;13.30;11.40;;;;;;;;;;4992774;28;20415;-54
2021/11/12 11:29:11;;;;;;;11.77;10.57;;;;;;;;;;4992601;28;20815;-53
2021/11/12 11:31:37;;;;;;;13.43;10.40;;;;;;;;;;4992545;28;20397;-54
2021/11/12 11:34:04;;;;;;;12.43;11.00;;;;;;;;;;4992263;28;20553;-54
2021/11/12 11:36:31;;;;;;;14.17;11.10;;;;;;;;;;4992498;28;20489;-54
2021/11/12 11:39:00;;;;;;;13.07;11.50;;;;;;;;;;4992436;28;20410;-54
2021/11/12 11:41:26;;;;;;;12.70;10.53;;;;;;;;;;4992643;28;20432;-54
2021/11/12 11:43:53;;;;;;;14.80;11.53;;;;;;;;;;4992666;28;20451;-54
2021/11/12 11:46:22;;;;;;;12.70;11.17;;;;;;;;;;4992424;28;20473;-54
2021/11/12 11:48:49;;;;;;;12.90;10.07;;;;;;;;;;4992359;28;20423;-54
2021/11/12 11:51:20;;;;;;;11.80;10.53;;;;;;;;;;4992473;28;20407;-54
2021/11/12 11:53:52;;;;;;;11.70;10.20;;;;;;;;;;4992383;28;21021;-54
2021/11/12 11:56:29;;;;;;;11.70;10.50;;;;;;;;;;4992432;28;20879;-54
2021/11/12 11:58:56;;;;;;;11.30;10.07;;;;;;;;;;4992253;28;20489;-54
2021/11/12 12:01:37;;;;;;;14.27;11.30;;;;;;;;;;4992451;28;20408;-54
2021/11/12 12:04:09;;;;;;;12.53;10.70;;;;;;;;;;4992348;28;20420;-54
2021/11/12 12:06:36;;;;;;;16.03;11.23;;;;;;;;;;4992363;28;20941;-54
2021/11/12 12:09:09;;;;;;;12.47;10.03;;;;;;;;;;4992156;28;20413;-54
2021/11/12 12:11:55;;;;;;;15.70;12.23;;;;;;;;;;4992460;28;20474;-54
2021/11/12 12:14:24;;;;;;;13.73;12.33;;;;;;;;;;4992169;28;20483;-54
2021/11/12 12:17:02;;;;;;;18.23;11.83;;;;;;;;;;4992906;28;20405;-52
2021/11/12 12:19:43;;;;;;;15.50;12.03;;;;;;;;;;4992502;28;20401;-52
2021/11/12 12:22:36;;;;;;;14.50;10.57;;;;;;;;;;4992179;28;20412;-52
2021/11/12 13:25:33;;;;;;;7.10;6.40;;;;;;;;;;4960098;28;20474;-54
2021/11/12 13:28:18;;;;;;;9.80;8.20;;;;;;;;;;4995871;28;20409;-54
2021/11/12 13:30:46;;;;;;;10.90;8.63;;;;;;;;;;4996327;28;20376;-51
2021/11/12 13:33:32;;;;;;;10.67;8.43;;;;;;;;;;4994663;28;20474;-51
2021/11/12 13:35:59;;;;;;;9.40;8.40;;;;;;;;;;4994832;28;20379;-52
2021/11/12 13:38:41;;;;;;;11.13;8.40;;;;;;;;;;4994460;28;20381;-52
2021/11/12 13:41:08;;;;;;;10.60;8.20;;;;;;;;;;4994696;28;20401;-51
2021/11/12 13:43:35;;;;;;;13.77;9.57;;;;;;;;;;4994515;28;20460;-51
2021/11/12 13:46:01;;;;;;;10.10;8.40;;;;;;;;;;4992414;28;20405;-51
2021/11/12 13:48:27;;;;;;;10.10;7.90;;;;;;;;;;4993364;28;20427;-51
2021/11/12 13:50:55;;;;;;;9.53;8.00;;;;;;;;;;4992726;28;20443;-52
2021/11/12 13:53:24;;;;;;;11.77;8.70;;;;;;;;;;4993609;28;20551;-52
2021/11/12 13:55:50;;;;;;;11.10;7.60;;;;;;;;;;4994533;28;20463;-51
2021/11/12 13:58:20;;;;;;;15.60;9.10;;;;;;;;;;4994168;28;20387;-53
2021/11/12 14:00:47;;;;;;;12.20;8.57;;;;;;;;;;4994332;28;20548;-51
2021/11/12 14:03:21;;;;;;;11.40;9.40;;;;;;;;;;4994560;28;20855;-52
2021/11/12 14:05:56;;;;;;;10.23;8.53;;;;;;;;;;4994179;28;20449;-52
2021/11/12 14:08:23;;;;;;;14.40;9.33;;;;;;;;;;4994010;28;20439;-51
2021/11/12 14:10:53;;;;;;;13.20;9.40;;;;;;;;;;4993031;28;20847;-51
2021/11/12 14:13:21;;;;;;;11.77;9.00;;;;;;;;;;4993919;28;20841;-52
2021/11/12 14:16:03;;;;;;;14.10;9.93;;;;;;;;;;4993920;28;20378;-51
2021/11/12 14:18:52;;;;;;;11.47;9.30;;;;;;;;;;4993823;28;20816;-53
2021/11/12 14:21:32;;;;;;;10.60;9.50;;;;;;;;;;4993212;28;20434;-53
2021/11/12 14:40:30;;;;;;;11.73;7.90;;;;;;;;;;4993860;28;20405;-51
2021/11/12 14:46:02;;;;;;;12.20;9.13;;;;;;;;;;4993645;28;20428;-51
2021/11/12 14:48:44;;;;;;;13.53;10.33;;;;;;;;;;4993252;28;20456;-51
2021/11/12 14:51:17;;;;;;;15.73;10.10;;;;;;;;;;4993056;28;20401;-51
2021/11/12 14:56:16;;;;;;;14.67;10.50;;;;;;;;;;4993569;28;20412;-51
2021/11/12 14:58:47;;;;;;;16.53;9.93;;;;;;;;;;4993056;28;20403;-51
2021/11/12 15:01:22;;;;;;;17.23;10.90;;;;;;;;;;4993362;28;20408;-52
2021/11/12 15:03:51;;;;;;;13.07;10.13;;;;;;;;;;4993323;28;20421;-51
2021/11/12 15:06:19;;;;;;;12.63;10.23;;;;;;;;;;4993095;28;20406;-51
2021/11/12 15:11:25;;;;;;;11.47;10.23;;;;;;;;;;4993349;28;20540;-51
2021/11/12 15:13:53;;;;;;;29.27;19.27;;;;;;;;;;4993003;28;20847;-51
2021/11/12 15:16:22;;;;;;;13.70;9.10;;;;;;;;;;4993014;28;20777;-51
2021/11/12 15:18:50;;;;;;;11.33;9.33;;;;;;;;;;4992692;28;20406;-51
2021/11/12 15:21:33;;;;;;;14.10;9.23;;;;;;;;;;4993036;28;20405;-51
2021/11/12 15:24:09;;;;;;;12.80;9.37;;;;;;;;;;4992959;28;20421;-51
2021/11/12 15:29:10;;;;;;;11.17;9.40;;;;;;;;;;4992609;28;20412;-51
2021/11/12 15:34:07;;;;;;;9.77;8.77;;;;;;;;;;4986859;28;20564;-51
2021/11/12 15:36:34;;;;;;;19.30;10.03;;;;;;;;;;4991357;28;20812;-51
2021/11/12 15:39:11;;;;;;;14.93;9.87;;;;;;;;;;4992027;28;20404;-51
2021/11/12 15:42:07;;;;;;;10.10;8.63;;;;;;;;;;4991450;28;20880;-51
2021/11/12 15:44:38;;;;;;;13.90;8.93;;;;;;;;;;4991555;28;20404;-51
2021/11/12 15:47:09;;;;;;;13.03;9.37;;;;;;;;;;4992315;28;20458;-51
2021/11/12 15:49:38;;;;;;;11.93;9.53;;;;;;;;;;4992035;28;20784;-51
2021/11/12 16:07:52;;;;;;;15.63;8.77;;;;;;;;;;4992184;28;20555;-51
2021/11/12 16:26:22;;;;;;;12.50;9.97;;;;;;;;;;4972846;28;20444;-51
2021/11/12 16:31:37;;;;;;;15.13;9.07;;;;;;;;;;4974050;28;20444;-53
2021/11/12 16:34:09;;;;;;;14.30;10.13;;;;;;;;;;4973941;28;20460;-52
2021/11/12 16:36:41;;;;;;;13.37;9.20;;;;;;;;;;4974229;28;20461;-53
2021/11/12 16:39:07;;;;;;;12.47;9.50;;;;;;;;;;4974629;28;20842;-53
2021/11/12 16:41:34;;;;;;;12.73;9.00;;;;;;;;;;4975042;28;20456;-53
2021/11/12 16:46:41;;;;;;;15.30;8.80;;;;;;;;;;4974026;28;20417;-53
2021/11/12 16:49:34;;;;;;;12.37;9.43;;;;;;;;;;4975460;28;20413;-52
2021/11/12 17:02:47;;;;;;;11.70;8.73;;;;;;;;;;4975785;28;20427;-52
2021/11/12 17:05:50;;;;;;;14.43;9.30;;;;;;;;;;4976203;28;20836;-53
2021/11/12 17:16:28;;;;;;;14.53;9.67;;;;;;;;;;4978449;28;20830;-53
2021/11/12 17:46:13;;;;;;;10.47;8.80;;;;;;;;;;4978385;28;20437;-53
2021/11/12 17:48:42;;;;;;;11.70;8.27;;;;;;;;;;4976991;28;20484;-52
2021/11/12 17:54:08;;;;;;;9.40;8.17;;;;;;;;;;4977820;28;20503;-53
2021/11/12 18:03:07;;;;;;;16.27;9.70;;;;;;;;;;4977407;28;20832;-53
2021/11/12 21:48:40;;;;;;;13.13;9.53;;;;;;;;;;4994569;28;20408;-53
2021/11/12 21:51:09;;;;;;;14.20;9.80;;;;;;;;;;4993891;28;20407;-53
2021/11/12 21:53:35;;;;;;;12.70;9.27;;;;;;;;;;4994643;28;20457;-53
2021/11/12 21:56:05;;;;;;;15.20;9.80;;;;;;;;;;4994576;28;20779;-53
2021/11/12 21:58:32;;;;;;;13.33;9.20;;;;;;;;;;4994282;28;20500;-52
2021/11/12 22:00:59;;;;;;;12.27;8.83;;;;;;;;;;4992679;28;21197;-52
2021/11/12 22:03:28;;;;;;;14.33;10.17;;;;;;;;;;4990109;28;20434;-52
2021/11/12 22:05:56;;;;;;;11.60;8.77;;;;;;;;;;4995969;28;20438;-53
2021/11/12 22:08:22;;;;;;;14.97;10.40;;;;;;;;;;4994010;28;21068;-51
2021/11/12 22:10:48;;;;;;;16.77;12.00;;;;;;;;;;4994720;28;20979;-51
2021/11/12 22:13:15;;;;;;;15.53;11.60;;;;;;;;;;4996485;28;20449;-53
2021/11/12 22:15:41;;;;;;;12.90;9.83;;;;;;;;;;4996220;28;20495;-52
2021/11/12 22:18:10;;;;;;;13.77;10.83;;;;;;;;;;4995830;28;20434;-51
2021/11/12 22:20:36;;;;;;;15.90;10.43;;;;;;;;;;4986369;28;20430;-51
2021/11/12 22:23:02;;;;;;;14.63;10.70;;;;;;;;;;4993968;28;20958;-50
2021/11/12 22:25:28;;;;;;;17.10;11.00;;;;;;;;;;4994683;28;20449;-53
2021/11/12 22:27:54;;;;;;;16.57;10.73;;;;;;;;;;4992710;28;20563;-53
2021/11/12 22:30:20;;;;;;;16.80;9.93;;;;;;;;;;4996550;28;20503;-52
2021/11/12 22:32:46;;;;;;;14.83;10.50;;;;;;;;;;4997300;28;20483;-52
2021/11/12 22:35:13;;;;;;;15.87;9.73;;;;;;;;;;4995111;28;20937;-52
2021/11/12 22:37:40;;;;;;;16.10;10.63;;;;;;;;;;4995771;28;20553;-52
2021/11/12 22:40:07;;;;;;;14.73;10.40;;;;;;;;;;4996957;28;20778;-51
2021/11/12 22:42:33;;;;;;;23.70;10.90;;;;;;;;;;4995287;28;20513;-52
2021/11/12 22:44:59;;;;;;;16.10;10.77;;;;;;;;;;4993281;28;20416;-52
2021/11/12 22:47:25;;;;;;;14.90;10.23;;;;;;;;;;4995747;28;20410;-52
2021/11/12 22:49:52;;;;;;;17.53;10.70;;;;;;;;;;4995809;28;20415;-51
2021/11/12 22:52:18;;;;;;;13.83;10.60;;;;;;;;;;4993421;28;20402;-51
2021/11/12 22:54:47;;;;;;;17.60;10.90;;;;;;;;;;4992654;28;20940;-51
2021/11/12 22:57:18;;;;;;;12.67;10.03;;;;;;;;;;4994058;28;20406;-51
2021/11/12 22:59:44;;;;;;;19.73;10.67;;;;;;;;;;4995481;28;20440;-50
2021/11/12 23:02:10;;;;;;;12.93;9.67;;;;;;;;;;4993142;28;20406;-50
2021/11/12 23:04:36;;;;;;;15.23;10.23;;;;;;;;;;4993112;28;20495;-51
2021/11/12 23:07:02;;;;;;;12.17;9.27;;;;;;;;;;4993254;28;20548;-50
2021/11/12 23:09:28;;;;;;;21.00;10.70;;;;;;;;;;4992837;28;20539;-50
2021/11/12 23:11:54;;;;;;;15.20;10.87;;;;;;;;;;4992866;28;20648;-50
2021/11/12 23:14:20;;;;;;;12.47;9.50;;;;;;;;;;4992696;28;20478;-51
2021/11/12 23:16:46;;;;;;;16.97;10.07;;;;;;;;;;4993014;28;20484;-51
2021/11/12 23:19:12;;;;;;;14.93;9.87;;;;;;;;;;4992975;28;20449;-51
2021/11/12 23:21:38;;;;;;;16.37;10.13;;;;;;;;;;4993060;28;20476;-50
2021/11/12 23:24:06;;;;;;;14.10;10.23;;;;;;;;;;4992754;28;20886;-51
2021/11/12 23:26:32;;;;;;;14.60;10.03;;;;;;;;;;4992976;28;20544;-51
2021/11/12 23:28:58;;;;;;;12.23;9.37;;;;;;;;;;4992720;28;20461;-51
2021/11/12 23:31:25;;;;;;;16.40;11.50;;;;;;;;;;4992878;28;20411;-53
2021/11/12 23:33:51;;;;;;;17.63;10.53;;;;;;;;;;4992755;28;20456;-53
2021/11/12 23:36:17;;;;;;;10.80;8.73;;;;;;;;;;4991532;28;20911;-50
2021/11/12 23:38:43;;;;;;;16.37;9.80;;;;;;;;;;4992841;28;20496;-51
2021/11/12 23:41:09;;;;;;;13.37;10.07;;;;;;;;;;4992809;28;20401;-51
2021/11/12 23:43:35;;;;;;;13.20;9.70;;;;;;;;;;4992663;28;20458;-51
2021/11/12 23:46:01;;;;;;;15.90;10.50;;;;;;;;;;4992679;28;20838;-52
2021/11/12 23:48:27;;;;;;;13.50;9.03;;;;;;;;;;4992375;28;20440;-50
2021/11/12 23:50:54;;;;;;;14.53;10.60;;;;;;;;;;4993158;28;20889;-50
2021/11/12 23:53:20;;;;;;;17.87;11.20;;;;;;;;;;4992285;28;20417;-51
2021/11/12 23:55:46;;;;;;;16.50;10.40;;;;;;;;;;4992577;28;20399;-51
2021/11/12 23:58:12;;;;;;;14.17;9.80;;;;;;;;;;4992264;28;20396;-51
